Time;durP1;ratioP1;P1;durP2;ratioP2;P2;SDS_P1;SDS_P2;PMS_P1;PMS_P2;Temp;Humidity;BMP_temperature;BMP_pressure;BME280_temperature;BME280_humidity;BME280_pressure;Samples;Min_cycle;Max_cycle;Signal;HPM_P1;HPM_P2
2022/01/13 00:01:41;;;;;;;14.70;6.90;;;0.30;99.90;;;;;;5209994;28;20392;-72
2022/01/13 00:04:13;;;;;;;11.50;5.20;;;0.30;99.90;;;;;;5210032;28;20057;-71
2022/01/13 00:06:44;;;;;;;;;;;0.20;99.90;;;;;;5210091;28;20021;-71
2022/01/13 00:09:15;;;;;;;;;;;0.20;99.90;;;;;;5210237;28;20038;-72
2022/01/13 00:11:47;;;;;;;9.90;5.20;;;0.20;99.90;;;;;;5209915;28;20037;-71
2022/01/13 00:24:52;;;;;;;8.97;3.17;;;0.20;99.90;;;;;;5209552;28;20044;-72
2022/01/13 00:27:25;;;;;;;10.10;3.60;;;0.30;99.90;;;;;;5209800;28;20066;-72
2022/01/13 00:29:58;;;;;;;;;;;0.20;99.90;;;;;;5209710;28;20108;-71
2022/01/13 00:32:32;;;;;;;9.30;2.40;;;0.20;99.90;;;;;;5208874;28;20051;-71
2022/01/13 00:35:03;;;;;;;8.80;2.50;;;0.30;99.90;;;;;;5209498;28;20389;-71
2022/01/13 00:37:35;;;;;;;7.80;3.50;;;0.20;99.90;;;;;;5209500;28;20069;-71
2022/01/13 00:40:07;;;;;;;9.80;3.15;;;0.20;99.90;;;;;;5209390;28;20505;-70
2022/01/13 00:42:38;;;;;;;8.73;2.70;;;0.10;99.90;;;;;;5209565;28;20049;-71
2022/01/13 00:45:14;;;;;;;9.00;3.40;;;0.10;99.90;;;;;;5209497;28;20073;-71
2022/01/13 00:47:46;;;;;;;7.30;2.70;;;0.10;99.90;;;;;;5209589;28;20028;-71
2022/01/13 00:50:18;;;;;;;;;;;0.20;99.90;;;;;;5209755;28;20149;-71
2022/01/13 00:52:49;;;;;;;12.60;4.10;;;0.20;99.90;;;;;;5209112;28;20040;-71
2022/01/13 00:55:22;;;;;;;;;;;0.10;99.90;;;;;;5209430;28;20050;-72
2022/01/13 00:57:52;;;;;;;;;;;0.20;99.90;;;;;;5209167;28;20049;-71
2022/01/13 01:00:23;;;;;;;4.50;1.65;;;0.00;99.90;;;;;;5191539;28;20512;-71
2022/01/13 01:02:54;;;;;;;;;;;0.10;99.90;;;;;;5208772;28;20383;-71
2022/01/13 01:05:25;;;;;;;8.90;2.20;;;0.00;99.90;;;;;;5209004;28;20050;-71
2022/01/13 01:07:56;;;;;;;5.90;1.73;;;-0.10;99.90;;;;;;5207996;28;20599;-72
2022/01/13 01:10:27;;;;;;;6.15;1.60;;;0.00;99.90;;;;;;5208943;28;20033;-71
2022/01/13 01:12:58;;;;;;;7.18;2.22;;;0.00;99.90;;;;;;5208672;28;20025;-72
2022/01/13 01:15:30;;;;;;;5.80;2.10;;;0.00;99.90;;;;;;5208816;28;20028;-71
2022/01/13 01:18:08;;;;;;;;;;;0.00;99.90;;;;;;5208778;28;20060;-72
2022/01/13 01:20:49;;;;;;;4.15;1.70;;;0.00;99.90;;;;;;5209201;28;20033;-72
2022/01/13 01:23:25;;;;;;;;;;;0.10;99.90;;;;;;5208748;28;20041;-71
2022/01/13 01:26:08;;;;;;;8.00;2.10;;;-0.20;99.90;;;;;;5208743;28;20038;-71
2022/01/13 01:28:46;;;;;;;5.65;1.23;;;-0.20;99.90;;;;;;5208486;28;20028;-71
2022/01/13 01:31:23;;;;;;;6.82;1.70;;;-0.10;99.90;;;;;;5208178;28;20042;-71
2022/01/13 01:34:13;;;;;;;5.05;1.73;;;-0.20;99.90;;;;;;5208509;28;20034;-71
2022/01/13 01:36:45;;;;;;;3.08;1.25;;;-0.10;99.90;;;;;;5208755;28;20075;-72
2022/01/13 01:39:16;;;;;;;2.83;1.33;;;0.00;99.90;;;;;;5208510;28;20037;-71
2022/01/13 01:41:52;;;;;;;5.82;1.52;;;-0.20;99.90;;;;;;5208166;28;20018;-71
2022/01/13 01:44:28;;;;;;;3.08;1.10;;;-0.10;99.90;;;;;;5207469;28;20092;-71
2022/01/13 01:47:00;;;;;;;5.22;1.48;;;-0.30;99.90;;;;;;5208446;28;20014;-72
2022/01/13 01:49:38;;;;;;;4.25;1.50;;;-0.30;99.90;;;;;;5208018;28;20103;-71
2022/01/13 01:52:12;;;;;;;3.95;1.92;;;-0.40;99.90;;;;;;5208110;28;20036;-71
2022/01/13 01:54:43;;;;;;;3.08;1.52;;;-0.40;99.90;;;;;;5208495;28;20061;-72
2022/01/13 01:57:29;;;;;;;5.25;2.15;;;-0.30;99.90;;;;;;5208083;28;20029;-72
2022/01/13 02:00:11;;;;;;;7.93;2.00;;;-0.70;99.90;;;;;;5208175;28;20033;-70
2022/01/13 02:02:47;;;;;;;5.18;1.60;;;-0.50;99.90;;;;;;5206858;28;20504;-72
2022/01/13 02:05:22;;;;;;;10.48;2.95;;;-0.40;99.90;;;;;;5207686;28;20385;-72
2022/01/13 02:08:01;;;;;;;6.20;1.45;;;-0.40;99.90;;;;;;5207786;28;20082;-72
2022/01/13 02:10:41;;;;;;;5.28;1.70;;;-0.70;99.90;;;;;;5207852;28;20032;-72
2022/01/13 02:13:19;;;;;;;4.20;1.50;;;-0.50;99.90;;;;;;5207733;28;20026;-72
2022/01/13 02:16:02;;;;;;;4.82;1.40;;;-0.40;99.90;;;;;;5207814;28;20029;-71
2022/01/13 02:18:33;;;;;;;5.30;1.20;;;-0.50;99.90;;;;;;5207602;28;20029;-71
2022/01/13 02:21:05;;;;;;;5.60;1.50;;;-0.50;99.90;;;;;;5207730;28;20044;-71
2022/01/13 02:23:38;;;;;;;4.13;1.55;;;-0.50;99.90;;;;;;5207353;28;20033;-71
2022/01/13 02:26:10;;;;;;;7.22;1.67;;;-0.70;99.90;;;;;;5207290;28;20032;-71
2022/01/13 02:28:43;;;;;;;6.50;1.50;;;-0.60;99.90;;;;;;5207405;28;20047;-71
2022/01/13 02:31:14;;;;;;;4.72;1.58;;;-0.60;99.90;;;;;;5207328;28;20055;-72
2022/01/13 02:33:45;;;;;;;6.22;1.75;;;-0.50;99.90;;;;;;5207498;28;20060;-71
2022/01/13 02:36:17;;;;;;;5.53;1.83;;;-0.50;99.90;;;;;;5207777;28;20033;-71
2022/01/13 02:38:54;;;;;;;6.53;1.50;;;-0.40;99.90;;;;;;5207295;28;20037;-71
2022/01/13 02:41:25;;;;;;;4.05;1.88;;;-0.50;99.90;;;;;;5207195;28;20096;-71
2022/01/13 02:43:58;;;;;;;7.07;1.80;;;-0.50;99.90;;;;;;5207219;28;20140;-71
2022/01/13 02:46:53;;;;;;;4.68;1.60;;;-0.70;99.90;;;;;;5207226;28;20083;-71
2022/01/13 02:49:24;;;;;;;5.85;2.03;;;-0.50;99.90;;;;;;5207190;28;20042;-71
2022/01/13 02:51:55;;;;;;;4.88;1.48;;;-0.30;99.90;;;;;;5207300;28;20384;-71
2022/01/13 02:54:27;;;;;;;5.32;1.73;;;-0.50;99.90;;;;;;5209162;28;20131;-71
2022/01/13 02:56:58;;;;;;;6.95;1.80;;;-0.40;99.90;;;;;;5211563;28;20025;-72
2022/01/13 02:59:29;;;;;;;5.75;2.08;;;-0.50;99.90;;;;;;5211434;28;20543;-71
2022/01/13 03:02:00;;;;;;;5.55;1.30;;;-0.60;99.90;;;;;;5210992;28;20129;-71
2022/01/13 03:04:30;;;;;;;5.43;2.20;;;-0.60;99.90;;;;;;5211067;28;20060;-71
2022/01/13 03:07:01;;;;;;;4.90;1.80;;;-0.50;99.90;;;;;;5211291;28;20029;-71
2022/01/13 03:09:32;;;;;;;5.90;2.40;;;-0.40;99.90;;;;;;5193556;28;20137;-71
2022/01/13 03:12:04;;;;;;;4.80;1.60;;;-0.50;99.90;;;;;;5211357;28;20026;-72
2022/01/13 03:14:35;;;;;;;6.70;1.58;;;-0.50;99.90;;;;;;5211178;28;20029;-71
2022/01/13 03:17:06;;;;;;;8.35;1.83;;;-0.60;99.90;;;;;;5211513;28;20099;-71
2022/01/13 03:19:36;;;;;;;8.57;1.50;;;-0.70;99.90;;;;;;5211014;28;20033;-71
2022/01/13 03:22:07;;;;;;;6.43;1.40;;;-0.60;99.90;;;;;;5210971;28;20060;-71
2022/01/13 03:24:38;;;;;;;4.35;1.25;;;-0.50;99.90;;;;;;5210987;28;20028;-72
2022/01/13 03:27:18;;;;;;;5.18;1.90;;;-0.50;99.90;;;;;;5210985;28;20472;-71
2022/01/13 03:29:49;;;;;;;5.22;1.75;;;-0.70;99.90;;;;;;5210855;28;20018;-72
2022/01/13 03:32:20;;;;;;;8.45;1.77;;;-0.60;99.90;;;;;;5210508;28;20033;-71
2022/01/13 03:34:51;;;;;;;6.93;1.83;;;-1.20;99.90;;;;;;5210956;28;20026;-71
2022/01/13 03:37:22;;;;;;;4.90;1.40;;;-0.70;99.90;;;;;;5210739;28;20025;-71
2022/01/13 03:39:53;;;;;;;8.52;1.88;;;-0.70;99.90;;;;;;5210672;28;20033;-71
2022/01/13 03:42:24;;;;;;;4.20;1.58;;;-0.60;99.90;;;;;;5210692;28;20025;-71
2022/01/13 03:44:56;;;;;;;4.90;1.75;;;-0.60;99.90;;;;;;5192674;28;20112;-71
2022/01/13 03:47:27;;;;;;;11.85;2.47;;;-0.70;99.90;;;;;;5210666;28;20096;-71
2022/01/13 03:49:59;;;;;;;5.07;1.60;;;-0.50;99.90;;;;;;5210762;28;20112;-71
2022/01/13 03:52:31;;;;;;;4.20;2.05;;;-0.60;99.90;;;;;;5210719;28;20021;-71
2022/01/13 03:55:07;;;;;;;8.57;2.30;;;-0.70;99.90;;;;;;5210251;28;20025;-72
2022/01/13 03:57:53;;;;;;;8.50;2.33;;;-0.60;99.90;;;;;;5210419;28;20107;-71
2022/01/13 04:00:48;;;;;;;10.02;2.80;;;-0.70;99.90;;;;;;5210216;28;20018;-72
2022/01/13 04:03:19;;;;;;;7.50;2.47;;;-0.60;99.90;;;;;;5209835;28;20063;-72
2022/01/13 04:06:09;;;;;;;56.72;24.50;;;-0.60;99.90;;;;;;5209423;28;20021;-71
2022/01/13 04:08:40;;;;;;;32.65;16.80;;;-0.80;99.90;;;;;;5209953;28;20477;-71
2022/01/13 04:11:17;;;;;;;35.15;18.23;;;-0.70;99.90;;;;;;5210260;28;20052;-71
2022/01/13 04:16:27;;;;;;;7.03;2.75;;;-0.80;99.90;;;;;;5209961;28;20060;-70
2022/01/13 04:19:07;;;;;;;33.35;17.95;;;-0.80;99.90;;;;;;5209911;28;20041;-71
2022/01/13 04:21:39;;;;;;;13.20;6.47;;;-0.80;99.90;;;;;;5209642;28;20412;-71
2022/01/13 04:24:11;;;;;;;21.70;8.93;;;-0.70;99.90;;;;;;5209224;28;20037;-71
2022/01/13 04:26:44;;;;;;;7.03;2.63;;;-0.70;99.90;;;;;;5209171;28;20385;-70
2022/01/13 04:31:49;;;;;;;13.10;4.90;;;-0.80;99.90;;;;;;5209408;28;20044;-71
2022/01/13 04:34:20;;;;;;;5.68;2.60;;;-0.70;99.90;;;;;;5209598;28;20033;-71
2022/01/13 04:36:51;;;;;;;9.15;3.03;;;-0.80;99.90;;;;;;5209410;28;20025;-71
2022/01/13 04:39:22;;;;;;;8.57;2.80;;;-0.70;99.90;;;;;;5209569;28;20373;-72
2022/01/13 04:41:54;;;;;;;11.73;4.60;;;-0.60;99.90;;;;;;5209613;28;20025;-71
2022/01/13 04:44:26;;;;;;;8.20;4.00;;;-0.80;99.90;;;;;;5209240;28;20034;-70
2022/01/13 04:46:57;;;;;;;12.00;5.10;;;-0.80;99.90;;;;;;5209376;28;20116;-70
2022/01/13 04:49:28;;;;;;;13.82;8.00;;;-0.80;99.90;;;;;;5209569;28;20029;-70
2022/01/13 04:51:59;;;;;;;14.10;4.88;;;-0.90;99.90;;;;;;5208939;28;20091;-70
2022/01/13 04:54:30;;;;;;;10.30;3.35;;;-0.90;99.90;;;;;;5209194;28;20426;-71
2022/01/13 04:57:07;;;;;;;8.10;3.55;;;-1.00;99.90;;;;;;5208199;28;20045;-70
2022/01/13 04:59:38;;;;;;;12.98;4.93;;;-0.90;99.90;;;;;;5208926;28;20373;-70
2022/01/13 05:02:09;;;;;;;8.60;3.00;;;-0.90;99.90;;;;;;5191626;28;20026;-70
2022/01/13 05:04:40;;;;;;;10.02;3.28;;;-1.00;99.90;;;;;;5188420;28;20049;-70
2022/01/13 05:07:11;;;;;;;6.70;2.10;;;-1.00;99.90;;;;;;5188521;28;20109;-70
2022/01/13 05:09:42;;;;;;;9.45;4.10;;;-0.80;99.90;;;;;;5188150;28;20034;-70
2022/01/13 05:12:12;;;;;;;7.00;3.60;;;-0.70;99.90;;;;;;5188297;28;20026;-69
2022/01/13 05:14:47;;;;;;;13.00;6.05;;;-0.80;99.90;;;;;;5188265;28;20026;-70
2022/01/13 05:17:46;;;;;;;9.65;3.05;;;-0.80;99.90;;;;;;5187155;28;20033;-70
2022/01/13 05:20:23;;;;;;;8.45;2.65;;;-0.70;99.90;;;;;;5188115;28;20454;-70
2022/01/13 05:22:54;;;;;;;10.60;3.30;;;-0.60;99.90;;;;;;5192075;28;20018;-70
2022/01/13 05:25:25;;;;;;;9.00;3.00;;;-0.70;99.90;;;;;;5208704;28;20026;-70
2022/01/13 05:27:55;;;;;;;12.23;3.20;;;-0.70;99.90;;;;;;5208536;28;20041;-70
2022/01/13 05:30:27;;;;;;;11.15;3.78;;;-0.60;99.90;;;;;;5208526;28;20017;-70
2022/01/13 05:32:58;;;;;;;6.50;3.33;;;-0.60;99.90;;;;;;5208279;28;20038;-70
2022/01/13 05:35:29;;;;;;;15.38;3.90;;;-0.40;99.90;;;;;;5208332;28;20099;-70
2022/01/13 05:38:00;;;;;;;9.07;3.67;;;-0.50;99.90;;;;;;5208179;28;20097;-70
2022/01/13 05:40:33;;;;;;;9.38;3.60;;;-0.50;99.90;;;;;;5208270;28;20033;-70
2022/01/13 05:43:04;;;;;;;11.90;4.00;;;-0.50;99.90;;;;;;5208025;28;20036;-70
2022/01/13 05:45:35;;;;;;;8.52;4.03;;;-0.40;99.90;;;;;;5207970;28;20049;-70
2022/01/13 05:48:07;;;;;;;9.93;3.88;;;-0.40;99.90;;;;;;5186459;28;20026;-70
2022/01/13 05:50:38;;;;;;;16.65;5.70;;;-0.40;99.90;;;;;;5187673;28;20022;-70
2022/01/13 05:53:09;;;;;;;23.42;8.75;;;-0.40;99.90;;;;;;5187812;28;20040;-70
2022/01/13 05:55:40;;;;;;;35.30;14.18;;;-0.30;99.90;;;;;;5169898;28;20056;-70
2022/01/13 05:58:10;;;;;;;62.90;24.30;;;-0.40;99.90;;;;;;5187506;28;20399;-70
2022/01/13 06:00:42;;;;;;;99.82;37.03;;;-0.40;99.90;;;;;;5187286;28;20100;-70
2022/01/13 06:03:12;;;;;;;55.30;21.83;;;-0.30;99.90;;;;;;5186990;28;20104;-70
2022/01/13 06:05:43;;;;;;;24.77;10.73;;;-0.30;99.90;;;;;;5187198;28;20026;-70
2022/01/13 06:08:14;;;;;;;40.08;18.27;;;-0.30;99.90;;;;;;5187349;28;20022;-70
2022/01/13 06:10:46;;;;;;;21.80;9.75;;;-0.20;99.90;;;;;;5187188;28;20405;-70
2022/01/13 06:13:17;;;;;;;49.42;21.25;;;-0.10;99.90;;;;;;5187437;28;20022;-70
2022/01/13 06:15:48;;;;;;;43.78;19.67;;;-0.30;99.90;;;;;;5187388;28;20026;-70
2022/01/13 06:18:18;;;;;;;36.53;15.65;;;-0.20;99.90;;;;;;5187041;28;20047;-70
2022/01/13 06:20:49;;;;;;;25.10;12.75;;;-0.20;99.90;;;;;;5187269;28;20026;-70
2022/01/13 06:23:20;;;;;;;22.23;12.10;;;-0.20;99.90;;;;;;5187117;28;20108;-70
2022/01/13 06:25:51;;;;;;;18.73;8.50;;;-0.10;99.90;;;;;;5186977;28;20018;-70
2022/01/13 06:28:22;;;;;;;10.45;5.15;;;-0.20;99.90;;;;;;5186818;28;20105;-70
2022/01/13 06:30:52;;;;;;;12.93;6.38;;;-0.10;99.90;;;;;;5186770;28;20102;-69
2022/01/13 06:33:23;;;;;;;9.93;4.28;;;-0.10;99.90;;;;;;5186778;28;20030;-70
2022/01/13 06:35:55;;;;;;;10.70;4.50;;;-0.10;99.90;;;;;;5186990;28;20454;-70
2022/01/13 06:38:26;;;;;;;11.48;3.97;;;-0.10;99.90;;;;;;5186966;28;20137;-70
2022/01/13 06:40:57;;;;;;;8.43;3.35;;;0.00;99.90;;;;;;5186757;28;20101;-70
2022/01/13 06:43:28;;;;;;;12.05;3.85;;;-0.10;99.90;;;;;;5186782;28;20026;-70
2022/01/13 06:45:59;;;;;;;13.35;3.88;;;-0.20;99.90;;;;;;5203988;28;20062;-70
2022/01/13 06:48:30;;;;;;;17.85;9.63;;;-0.10;99.90;;;;;;5192326;28;20056;-70
2022/01/13 06:51:03;;;;;;;18.55;9.93;;;-0.10;99.90;;;;;;5181498;28;20452;-70
2022/01/13 06:53:34;;;;;;;11.13;3.03;;;-0.20;99.90;;;;;;5186742;28;20030;-70
2022/01/13 06:56:05;;;;;;;11.80;4.15;;;-0.30;99.90;;;;;;5186742;28;20018;-70
2022/01/13 06:58:36;;;;;;;17.60;7.72;;;-0.20;99.90;;;;;;5186735;28;20077;-70
2022/01/13 07:01:07;;;;;;;16.73;7.85;;;-0.20;99.90;;;;;;5181327;28;20030;-71
2022/01/13 07:03:38;;;;;;;14.70;5.63;;;-0.20;99.90;;;;;;5187092;28;20501;-70
2022/01/13 07:06:09;;;;;;;11.80;4.43;;;-0.30;99.90;;;;;;5185555;28;20072;-72
2022/01/13 07:08:39;;;;;;;11.95;3.33;;;-0.30;99.90;;;;;;5185851;28;20029;-70
2022/01/13 07:11:10;;;;;;;8.73;2.90;;;-0.30;99.90;;;;;;5185922;28;20036;-71
2022/01/13 07:13:41;;;;;;;7.15;3.58;;;-0.10;99.90;;;;;;5184758;28;20072;-70
2022/01/13 07:18:57;;;;;;;8.77;2.95;;;-0.10;99.90;;;;;;5176811;28;20063;-70
2022/01/13 07:21:28;;;;;;;8.10;3.35;;;-0.30;99.90;;;;;;5185023;28;20054;-70
2022/01/13 07:23:59;;;;;;;10.27;3.72;;;-0.30;99.90;;;;;;5190048;28;20100;-70
2022/01/13 07:26:30;;;;;;;10.30;3.30;;;-0.20;99.90;;;;;;5186231;28;20049;-70
2022/01/13 07:29:02;;;;;;;11.55;5.25;;;-0.30;99.90;;;;;;5186116;28;20025;-69
2022/01/13 07:31:33;;;;;;;13.13;5.82;;;-0.20;99.90;;;;;;5185302;28;20026;-70
2022/01/13 07:34:06;;;;;;;12.13;5.07;;;-0.30;99.90;;;;;;5194326;28;20053;-70
2022/01/13 07:36:38;;;;;;;14.85;6.35;;;-0.30;99.90;;;;;;5193944;28;20029;-70
2022/01/13 07:39:09;;;;;;;11.82;4.38;;;-0.30;99.90;;;;;;5202279;28;20069;-71
2022/01/13 07:41:42;;;;;;;9.55;4.65;;;-0.30;99.90;;;;;;5186854;28;20058;-71
2022/01/13 07:44:15;;;;;;;11.13;3.50;;;-0.30;99.90;;;;;;5189824;28;20075;-70
2022/01/13 07:46:45;;;;;;;7.15;2.92;;;-0.20;99.90;;;;;;5189809;28;20045;-70
2022/01/13 07:49:16;;;;;;;9.80;3.95;;;-0.20;99.90;;;;;;5189365;28;20057;-70
2022/01/13 07:51:47;;;;;;;7.07;2.85;;;-0.20;99.90;;;;;;5189179;28;20026;-70
2022/01/13 07:54:18;;;;;;;8.50;2.90;;;-0.10;99.90;;;;;;5189856;28;20060;-72
2022/01/13 07:56:49;;;;;;;8.50;3.60;;;-0.10;99.90;;;;;;5179075;28;20557;-70
2022/01/13 07:59:20;;;;;;;9.10;4.20;;;-0.10;99.90;;;;;;5189355;28;20109;-73
2022/01/13 08:01:51;;;;;;;7.07;2.90;;;-0.20;99.90;;;;;;5183478;28;20033;-70
2022/01/13 08:04:22;;;;;;;10.18;3.53;;;-0.20;99.90;;;;;;5188365;28;20401;-69
2022/01/13 08:06:53;;;;;;;10.32;4.35;;;0.00;99.90;;;;;;5189347;28;20026;-70
2022/01/13 08:09:25;;;;;;;9.27;3.53;;;-0.10;99.90;;;;;;5189297;28;20228;-70
2022/01/13 08:11:56;;;;;;;9.85;3.58;;;0.00;99.90;;;;;;5189141;28;20029;-70
2022/01/13 08:14:26;;;;;;;10.13;4.70;;;0.00;99.90;;;;;;5189265;28;20461;-70
2022/01/13 08:17:00;;;;;;;10.52;4.30;;;0.00;99.90;;;;;;5187262;28;20053;-71
2022/01/13 08:19:46;;;;;;;7.60;3.83;;;0.00;99.90;;;;;;5188988;28;20057;-70
2022/01/13 08:22:17;;;;;;;9.25;4.32;;;0.00;99.90;;;;;;5193980;28;20049;-73
2022/01/13 08:24:48;;;;;;;9.05;2.92;;;0.20;99.90;;;;;;5198665;28;20029;-71
2022/01/13 08:27:18;;;;;;;9.63;3.55;;;0.00;99.90;;;;;;5188527;28;20032;-70
2022/01/13 08:29:49;;;;;;;9.60;3.97;;;0.00;99.90;;;;;;5188790;28;20436;-70
2022/01/13 08:32:20;;;;;;;9.75;2.92;;;-0.10;99.90;;;;;;5188532;28;20057;-73
2022/01/13 08:34:51;;;;;;;41.63;15.98;;;0.00;99.90;;;;;;5195200;28;20024;-73
2022/01/13 08:37:22;;;;;;;20.10;9.60;;;-0.10;99.90;;;;;;5207462;28;20029;-73
2022/01/13 08:39:55;;;;;;;12.10;7.13;;;0.20;99.90;;;;;;5207821;28;20046;-73
2022/01/13 08:42:27;;;;;;;17.73;8.50;;;-0.10;99.90;;;;;;5202119;28;20079;-73
2022/01/13 08:44:58;;;;;;;13.18;5.75;;;0.10;99.90;;;;;;5206862;28;20036;-73
2022/01/13 08:47:29;;;;;;;11.57;5.47;;;-0.50;99.90;;;;;;5203967;28;20018;-72
2022/01/13 08:50:00;;;;;;;11.82;5.30;;;0.10;99.90;;;;;;5191658;28;20858;-71
2022/01/13 08:52:33;;;;;;;13.88;6.88;;;0.00;99.90;;;;;;5204686;28;20112;-72
2022/01/13 08:55:06;;;;;;;9.30;5.10;;;0.40;99.90;;;;;;5196885;28;20018;-72
2022/01/13 08:57:37;;;;;;;11.52;5.10;;;0.10;99.90;;;;;;5203426;28;20465;-74
2022/01/13 09:00:09;;;;;;;7.05;4.00;;;0.10;99.90;;;;;;5206856;28;20040;-73
2022/01/13 09:02:42;;;;;;;11.45;4.45;;;0.20;99.90;;;;;;5207768;28;20103;-71
2022/01/13 09:05:15;;;;;;;14.77;5.90;;;0.20;99.90;;;;;;5185054;28;20140;-70
2022/01/13 09:07:47;;;;;;;9.13;5.35;;;0.10;99.90;;;;;;5204129;28;20107;-71
2022/01/13 09:10:18;;;;;;;8.68;4.53;;;0.20;99.90;;;;;;5206858;28;20350;-72
2022/01/13 09:12:49;;;;;;;13.63;5.90;;;0.20;99.90;;;;;;5207731;28;20110;-72
2022/01/13 09:15:32;;;;;;;13.15;4.53;;;0.10;99.90;;;;;;5201218;28;20056;-72
2022/01/13 09:18:10;;;;;;;10.52;3.50;;;0.20;99.90;;;;;;5199438;28;20420;-71
2022/01/13 09:20:42;;;;;;;9.20;5.78;;;0.00;99.90;;;;;;5207577;28;20021;-72
2022/01/13 09:47:20;;;;;;;7.03;3.95;;;0.00;99.90;;;;;;5308597;27;20393;-76
2022/01/13 09:49:51;;;;;;;7.10;3.20;;;0.10;99.90;;;;;;5289454;27;20031;-75
2022/01/13 09:52:22;;;;;;;7.43;4.10;;;0.10;99.90;;;;;;5307533;27;20023;-74
2022/01/13 09:54:53;;;;;;;8.65;3.17;;;0.10;99.90;;;;;;5288056;27;20050;-74
2022/01/13 09:57:24;;;;;;;7.13;3.65;;;0.00;99.90;;;;;;5288294;27;20031;-76
2022/01/13 09:59:58;;;;;;;7.53;3.15;;;0.20;99.90;;;;;;5288654;28;20084;-73
2022/01/13 10:02:29;;;;;;;21.35;4.97;;;0.20;99.90;;;;;;5307964;27;20037;-75
2022/01/13 10:05:01;;;;;;;10.57;4.18;;;0.30;99.90;;;;;;5307640;27;20049;-73
2022/01/13 10:07:44;;;;;;;9.60;3.10;;;0.20;99.90;;;;;;5289444;28;20059;-74
2022/01/13 10:10:17;;;;;;;7.90;3.28;;;0.10;99.90;;;;;;5307817;28;20024;-74
2022/01/13 10:12:58;;;;;;;12.63;4.00;;;0.30;99.90;;;;;;5260241;28;20115;-74
2022/01/13 10:18:41;;;;;;;9.25;3.53;;;0.10;99.90;;;;;;5278656;28;20054;-74
2022/01/13 10:21:17;;;;;;;8.13;3.65;;;0.20;99.90;;;;;;5271054;28;20016;-74
2022/01/13 10:24:03;;;;;;;10.13;4.25;;;0.00;99.90;;;;;;5255808;28;20043;-75
2022/01/13 10:26:37;;;;;;;8.93;3.38;;;0.10;99.90;;;;;;5268452;28;20052;-74
2022/01/13 10:29:08;;;;;;;10.15;4.15;;;0.20;99.90;;;;;;5246201;28;20108;-74
2022/01/13 10:31:43;;;;;;;9.15;3.65;;;0.00;99.90;;;;;;5264293;28;20059;-74
2022/01/13 10:34:29;;;;;;;16.63;8.50;;;0.00;99.90;;;;;;5273909;28;20027;-74
2022/01/13 10:37:05;;;;;;;20.67;10.43;;;0.10;99.90;;;;;;5265533;28;20073;-75
2022/01/13 10:39:49;;;;;;;10.27;4.53;;;0.20;99.90;;;;;;5276569;28;20019;-74
2022/01/13 10:45:17;;;;;;;9.20;4.25;;;0.10;99.90;;;;;;5268695;28;20048;-76
2022/01/13 10:47:57;;;;;;;8.70;3.10;;;0.10;99.90;;;;;;5247647;28;20040;-75
2022/01/13 10:50:40;;;;;;;15.25;6.40;;;0.10;99.90;;;;;;5266499;28;20035;-73
2022/01/13 10:53:15;;;;;;;24.40;10.75;;;0.10;99.90;;;;;;5262282;28;20081;-74
2022/01/13 10:55:52;;;;;;;15.85;6.95;;;0.40;99.90;;;;;;5262028;28;20359;-75
2022/01/13 10:58:35;;;;;;;20.38;8.32;;;0.20;99.90;;;;;;5257056;28;20028;-73
2022/01/13 11:01:06;;;;;;;47.03;19.20;;;0.30;99.90;;;;;;5276996;28;20039;-74
2022/01/13 11:03:40;;;;;;;28.70;11.85;;;0.30;99.90;;;;;;5269453;28;20054;-75
2022/01/13 11:06:12;;;;;;;44.65;17.98;;;0.30;99.90;;;;;;5257825;28;20098;-73
2022/01/13 11:08:47;;;;;;;27.92;13.00;;;0.40;99.90;;;;;;5266765;28;20024;-74
2022/01/13 11:11:25;;;;;;;23.08;11.02;;;0.30;99.90;;;;;;5264585;28;20028;-73
2022/01/13 11:14:04;;;;;;;29.92;11.38;;;0.20;99.90;;;;;;5261025;28;20028;-74
2022/01/13 11:16:37;;;;;;;26.20;12.13;;;0.30;99.90;;;;;;5264771;28;20467;-73
2022/01/13 11:19:10;;;;;;;16.50;7.30;;;0.40;99.90;;;;;;5256600;28;20383;-73
2022/01/13 11:21:41;;;;;;;13.07;8.05;;;0.30;99.90;;;;;;5267781;28;20031;-73
2022/01/13 11:24:12;;;;;;;11.05;5.88;;;0.30;99.90;;;;;;5257372;28;20040;-75
2022/01/13 11:26:44;;;;;;;13.07;7.85;;;0.50;99.90;;;;;;5267522;28;20051;-75
2022/01/13 11:29:17;;;;;;;11.20;6.57;;;0.40;99.90;;;;;;5265106;28;20020;-75
2022/01/13 11:31:50;;;;;;;12.60;4.20;;;0.60;99.90;;;;;;5259504;28;20420;-76
2022/01/13 11:34:21;;;;;;;5.50;3.00;;;0.40;99.90;;;;;;5255763;28;20017;-73
2022/01/13 11:36:52;;;;;;;7.25;3.42;;;0.70;99.90;;;;;;5264851;28;20520;-75
2022/01/13 11:39:42;;;;;;;11.25;4.72;;;0.30;99.90;;;;;;5261943;28;20101;-74
2022/01/13 11:42:14;;;;;;;6.05;2.75;;;0.40;99.90;;;;;;5269797;28;20047;-74
2022/01/13 11:45:05;;;;;;;9.20;4.13;;;0.30;99.90;;;;;;5261573;28;20387;-74
2022/01/13 11:47:36;;;;;;;15.93;4.32;;;0.40;99.90;;;;;;5256875;28;20032;-72
2022/01/13 11:50:19;;;;;;;12.45;6.93;;;0.10;99.90;;;;;;5261405;28;20032;-74
2022/01/13 11:52:54;;;;;;;12.23;6.20;;;0.30;99.90;;;;;;5263289;28;20378;-73
2022/01/13 11:55:41;;;;;;;4.20;2.13;;;0.90;99.90;;;;;;5261319;28;20513;-73
2022/01/13 11:58:13;;;;;;;8.82;3.78;;;0.60;99.90;;;;;;5259517;28;20016;-73
2022/01/13 12:00:50;;;;;;;4.35;1.70;;;0.60;99.90;;;;;;5266715;28;20062;-73
2022/01/13 12:03:34;;;;;;;7.07;3.08;;;0.50;99.90;;;;;;5265181;28;20017;-75
2022/01/13 12:06:06;;;;;;;6.00;2.67;;;0.50;99.90;;;;;;5266731;28;20103;-76
2022/01/13 12:08:51;;;;;;;6.95;2.67;;;0.60;99.90;;;;;;5266689;28;20026;-75
2022/01/13 12:11:45;;;;;;;7.32;3.15;;;0.70;99.90;;;;;;5261946;28;21694;-75
2022/01/13 12:17:03;;;;;;;11.60;3.90;;;2.00;99.90;;;;;;5266222;28;20467;-75
2022/01/13 12:19:45;;;;;;;15.13;4.63;;;1.30;99.90;;;;;;5254953;28;20027;-76
2022/01/13 12:22:32;;;;;;;12.73;3.08;;;1.20;99.90;;;;;;5260336;28;20058;-75
2022/01/13 12:25:17;;;;;;;5.05;2.17;;;1.00;99.90;;;;;;5259047;28;20046;-77
2022/01/13 12:27:51;;;;;;;6.72;3.03;;;0.50;99.90;;;;;;5225050;28;20094;-76
2022/01/13 12:30:26;;;;;;;8.73;2.80;;;0.50;99.90;;;;;;5268343;28;20020;-75
2022/01/13 12:33:03;;;;;;;8.77;3.72;;;0.60;99.90;;;;;;5260764;28;20408;-76
2022/01/13 12:35:34;;;;;;;7.95;4.85;;;0.50;99.90;;;;;;5259004;28;20970;-75
2022/01/13 12:38:13;;;;;;;13.23;6.30;;;0.50;99.90;;;;;;5253119;28;20027;-74
2022/01/13 12:41:15;;;;;;;10.57;4.00;;;0.60;99.90;;;;;;5251417;28;20042;-76
2022/01/13 12:44:01;;;;;;;9.88;3.65;;;0.60;99.90;;;;;;5243859;28;20021;-75
2022/01/13 12:46:34;;;;;;;14.10;6.40;;;0.70;99.90;;;;;;5263040;28;20047;-75
2022/01/13 12:49:07;;;;;;;18.27;9.25;;;0.50;99.90;;;;;;5265130;28;20463;-76
2022/01/13 12:51:38;;;;;;;41.60;16.17;;;0.60;99.90;;;;;;5257111;28;20020;-75
2022/01/13 12:54:09;;;;;;;30.63;13.75;;;0.60;99.90;;;;;;5268421;28;20115;-76
2022/01/13 12:56:40;;;;;;;18.30;7.47;;;0.50;99.90;;;;;;5261485;28;20028;-75
2022/01/13 12:59:11;;;;;;;14.65;4.22;;;0.50;99.90;;;;;;5265016;28;20029;-75
2022/01/13 13:01:42;;;;;;;16.48;5.25;;;0.60;99.90;;;;;;5264941;28;20031;-76
2022/01/13 13:04:13;;;;;;;9.55;3.95;;;0.50;99.90;;;;;;5243761;28;20051;-74
2022/01/13 13:06:49;;;;;;;6.95;3.33;;;0.50;99.90;;;;;;5261455;28;20035;-75
2022/01/13 13:09:23;;;;;;;8.63;3.05;;;0.60;99.90;;;;;;5261319;28;20092;-75
2022/01/13 13:11:58;;;;;;;8.57;3.72;;;0.50;99.90;;;;;;5263962;28;20052;-74
2022/01/13 13:17:51;;;;;;;10.25;4.45;;;0.50;99.90;;;;;;5261658;28;20074;-74
2022/01/13 13:20:33;;;;;;;10.05;5.40;;;0.60;99.90;;;;;;5261201;28;20077;-75
2022/01/13 13:23:07;;;;;;;37.75;16.02;;;0.60;99.90;;;;;;5267437;28;20103;-75
2022/01/13 13:25:44;;;;;;;21.75;9.85;;;0.60;99.90;;;;;;5260849;28;20024;-75
2022/01/13 13:28:25;;;;;;;27.50;11.05;;;0.60;99.90;;;;;;5259331;28;20399;-75
2022/01/13 13:30:57;;;;;;;;;;;0.60;99.90;;;;;;5258016;28;20028;-74
2022/01/13 13:33:38;;;;;;;37.80;15.45;;;0.40;99.90;;;;;;5266506;28;19912;-76
2022/01/13 13:36:17;;;;;;;104.50;39.20;;;0.50;99.90;;;;;;5263857;28;20118;-74
2022/01/13 13:38:57;;;;;;;57.70;24.73;;;0.40;99.90;;;;;;5260859;28;20017;-75
2022/01/13 13:41:30;;;;;;;36.63;18.15;;;0.50;99.90;;;;;;5261529;28;20406;-76
2022/01/13 13:44:01;;;;;;;32.03;16.27;;;0.40;99.90;;;;;;5247776;28;20008;-75
2022/01/13 13:46:34;;;;;;;15.93;8.05;;;0.50;99.90;;;;;;5263744;28;20102;-76
2022/01/13 13:49:06;;;;;;;15.50;7.30;;;0.40;99.90;;;;;;5251749;28;20563;-75
2022/01/13 13:51:38;;;;;;;12.48;6.43;;;0.40;99.90;;;;;;5259877;28;20054;-74
2022/01/13 13:54:16;;;;;;;17.35;9.48;;;0.50;99.90;;;;;;5259558;28;20017;-73
2022/01/13 13:57:01;;;;;;;12.38;5.05;;;0.40;99.90;;;;;;5264139;28;20040;-74
2022/01/13 13:59:43;;;;;;;15.23;7.72;;;0.40;99.90;;;;;;5255438;28;20479;-73
2022/01/13 14:02:36;;;;;;;13.85;4.68;;;0.30;99.90;;;;;;5254607;28;20054;-75
2022/01/13 14:05:11;;;;;;;14.98;6.55;;;0.30;99.90;;;;;;5255286;28;20068;-74
2022/01/13 14:07:44;;;;;;;18.25;10.18;;;0.50;99.90;;;;;;5264259;28;20483;-74
2022/01/13 14:10:22;;;;;;;14.68;7.68;;;0.40;99.90;;;;;;5254206;28;20058;-74
2022/01/13 14:13:02;;;;;;;14.85;6.75;;;0.40;99.90;;;;;;5266267;28;20411;-73
2022/01/13 14:15:42;;;;;;;38.83;19.13;;;0.60;99.90;;;;;;5260253;28;20072;-74
2022/01/13 14:18:16;;;;;;;29.08;14.30;;;0.50;99.90;;;;;;5260576;28;20039;-73